sensor_id;sensor_type;location;lat;lon;timestamp;temperature;humidity
72106;SHT30;59975;47.646;18.318;2023-01-06T00:01:56;8.58;77.50
72106;SHT30;59975;47.646;18.318;2023-01-06T00:04:23;8.56;77.97
72106;SHT30;59975;47.646;18.318;2023-01-06T00:06:48;8.57;77.79
72106;SHT30;59975;47.646;18.318;2023-01-06T00:09:14;8.57;77.68
72106;SHT30;59975;47.646;18.318;2023-01-06T00:11:39;8.56;77.73
72106;SHT30;59975;47.646;18.318;2023-01-06T00:14:05;8.56;77.97
72106;SHT30;59975;47.646;18.318;2023-01-06T00:16:30;8.54;78.15
72106;SHT30;59975;47.646;18.318;2023-01-06T00:18:57;8.50;78.35
72106;SHT30;59975;47.646;18.318;2023-01-06T00:21:23;8.56;77.97
72106;SHT30;59975;47.646;18.318;2023-01-06T00:23:49;8.56;77.87
72106;SHT30;59975;47.646;18.318;2023-01-06T00:26:14;8.64;77.69
72106;SHT30;59975;47.646;18.318;2023-01-06T00:28:40;8.65;77.58
72106;SHT30;59975;47.646;18.318;2023-01-06T00:31:13;8.67;77.80
72106;SHT30;59975;47.646;18.318;2023-01-06T00:33:40;8.65;77.68
72106;SHT30;59975;47.646;18.318;2023-01-06T00:36:07;8.64;77.63
72106;SHT30;59975;47.646;18.318;2023-01-06T00:38:33;8.69;77.81
72106;SHT30;59975;47.646;18.318;2023-01-06T00:41:08;8.71;77.41
72106;SHT30;59975;47.646;18.318;2023-01-06T00:43:53;8.74;77.30
72106;SHT30;59975;47.646;18.318;2023-01-06T00:46:18;8.71;77.40
72106;SHT30;59975;47.646;18.318;2023-01-06T00:48:44;8.72;77.33
72106;SHT30;59975;47.646;18.318;2023-01-06T00:51:09;8.69;77.68
72106;SHT30;59975;47.646;18.318;2023-01-06T00:53:35;8.68;77.51
72106;SHT30;59975;47.646;18.318;2023-01-06T00:56:01;8.72;77.41
72106;SHT30;59975;47.646;18.318;2023-01-06T00:58:30;8.71;77.20
72106;SHT30;59975;47.646;18.318;2023-01-06T01:00:56;8.67;77.51
72106;SHT30;59975;47.646;18.318;2023-01-06T01:03:23;8.69;77.60
72106;SHT30;59975;47.646;18.318;2023-01-06T01:05:49;8.63;77.97
72106;SHT30;59975;47.646;18.318;2023-01-06T01:08:15;8.46;78.85
72106;SHT30;59975;47.646;18.318;2023-01-06T01:10:40;8.50;78.71
72106;SHT30;59975;47.646;18.318;2023-01-06T01:13:05;8.44;79.14
72106;SHT30;59975;47.646;18.318;2023-01-06T01:15:31;8.36;79.23
72106;SHT30;59975;47.646;18.318;2023-01-06T01:17:56;8.36;79.41
72106;SHT30;59975;47.646;18.318;2023-01-06T01:20:22;8.37;79.49
72106;SHT30;59975;47.646;18.318;2023-01-06T01:22:47;8.32;79.64
72106;SHT30;59975;47.646;18.318;2023-01-06T01:25:13;8.27;79.93
72106;SHT30;59975;47.646;18.318;2023-01-06T01:27:38;8.32;79.58
72106;SHT30;59975;47.646;18.318;2023-01-06T01:30:04;8.34;79.56
72106;SHT30;59975;47.646;18.318;2023-01-06T01:32:30;8.36;79.58
72106;SHT30;59975;47.646;18.318;2023-01-06T01:34:55;8.37;79.64
72106;SHT30;59975;47.646;18.318;2023-01-06T01:37:21;8.36;79.55
72106;SHT30;59975;47.646;18.318;2023-01-06T01:39:46;8.29;79.74
72106;SHT30;59975;47.646;18.318;2023-01-06T01:42:18;8.33;79.83
72106;SHT30;59975;47.646;18.318;2023-01-06T01:45:04;8.26;80.28
72106;SHT30;59975;47.646;18.318;2023-01-06T01:47:46;8.20;80.61
72106;SHT30;59975;47.646;18.318;2023-01-06T01:50:31;8.22;80.43
72106;SHT30;59975;47.646;18.318;2023-01-06T01:53:06;8.22;80.56
72106;SHT30;59975;47.646;18.318;2023-01-06T01:55:36;8.19;80.66
72106;SHT30;59975;47.646;18.318;2023-01-06T01:58:15;8.23;80.53
72106;SHT30;59975;47.646;18.318;2023-01-06T02:00:42;8.22;80.61
72106;SHT30;59975;47.646;18.318;2023-01-06T02:03:08;8.20;80.60
72106;SHT30;59975;47.646;18.318;2023-01-06T02:05:37;8.17;80.72
72106;SHT30;59975;47.646;18.318;2023-01-06T02:08:13;8.19;80.62
72106;SHT30;59975;47.646;18.318;2023-01-06T02:10:41;8.24;80.55
72106;SHT30;59975;47.646;18.318;2023-01-06T02:13:06;8.30;80.29
72106;SHT30;59975;47.646;18.318;2023-01-06T02:15:33;8.24;80.40
72106;SHT30;59975;47.646;18.318;2023-01-06T02:21:01;8.33;79.96
72106;SHT30;59975;47.646;18.318;2023-01-06T02:32:01;8.37;79.80
72106;SHT30;59975;47.646;18.318;2023-01-06T02:42:41;8.27;80.55
72106;SHT30;59975;47.646;18.318;2023-01-06T02:50:45;8.22;80.71
72106;SHT30;59975;47.646;18.318;2023-01-06T02:55:56;8.06;81.32
72106;SHT30;59975;47.646;18.318;2023-01-06T03:01:11;8.09;81.22
72106;SHT30;59975;47.646;18.318;2023-01-06T03:03:41;8.02;81.53
72106;SHT30;59975;47.646;18.318;2023-01-06T03:06:10;7.99;81.55
72106;SHT30;59975;47.646;18.318;2023-01-06T03:08:37;7.97;81.55
72106;SHT30;59975;47.646;18.318;2023-01-06T03:11:03;7.99;81.61
72106;SHT30;59975;47.646;18.318;2023-01-06T03:16:03;7.99;81.48
72106;SHT30;59975;47.646;18.318;2023-01-06T03:18:29;8.07;81.23
72106;SHT30;59975;47.646;18.318;2023-01-06T03:20:58;8.02;81.43
72106;SHT30;59975;47.646;18.318;2023-01-06T03:23:24;7.99;81.55
72106;SHT30;59975;47.646;18.318;2023-01-06T03:25:50;8.02;81.66
72106;SHT30;59975;47.646;18.318;2023-01-06T03:28:15;7.97;81.58
72106;SHT30;59975;47.646;18.318;2023-01-06T03:30:54;7.96;81.71
72106;SHT30;59975;47.646;18.318;2023-01-06T03:33:29;7.96;81.71
72106;SHT30;59975;47.646;18.318;2023-01-06T03:39:05;8.02;81.33
72106;SHT30;59975;47.646;18.318;2023-01-06T03:41:48;8.03;81.42
72106;SHT30;59975;47.646;18.318;2023-01-06T03:47:38;8.03;81.30
72106;SHT30;59975;47.646;18.318;2023-01-06T03:52:36;8.00;81.59
72106;SHT30;59975;47.646;18.318;2023-01-06T03:55:12;8.07;81.26
72106;SHT30;59975;47.646;18.318;2023-01-06T03:57:42;8.09;81.31
72106;SHT30;59975;47.646;18.318;2023-01-06T04:00:22;8.00;81.68
72106;SHT30;59975;47.646;18.318;2023-01-06T04:02:49;8.00;81.80
72106;SHT30;59975;47.646;18.318;2023-01-06T04:05:17;7.96;81.94
72106;SHT30;59975;47.646;18.318;2023-01-06T04:07:44;7.97;82.00
72106;SHT30;59975;47.646;18.318;2023-01-06T04:10:11;7.96;82.24
72106;SHT30;59975;47.646;18.318;2023-01-06T04:12:37;7.96;82.21
72106;SHT30;59975;47.646;18.318;2023-01-06T04:15:04;7.96;82.19
72106;SHT30;59975;47.646;18.318;2023-01-06T04:17:30;7.96;82.09
72106;SHT30;59975;47.646;18.318;2023-01-06T04:19:56;7.97;82.01
72106;SHT30;59975;47.646;18.318;2023-01-06T04:22:21;7.93;82.14
72106;SHT30;59975;47.646;18.318;2023-01-06T04:24:46;8.00;81.99
72106;SHT30;59975;47.646;18.318;2023-01-06T04:27:12;7.97;81.94
72106;SHT30;59975;47.646;18.318;2023-01-06T04:29:37;7.97;82.02
72106;SHT30;59975;47.646;18.318;2023-01-06T04:32:03;7.92;82.20
72106;SHT30;59975;47.646;18.318;2023-01-06T04:34:28;7.90;82.37
72106;SHT30;59975;47.646;18.318;2023-01-06T04:36:54;7.97;82.16
72106;SHT30;59975;47.646;18.318;2023-01-06T04:39:20;7.93;82.50
72106;SHT30;59975;47.646;18.318;2023-01-06T04:41:45;7.82;83.21
72106;SHT30;59975;47.646;18.318;2023-01-06T04:44:11;7.79;83.24
72106;SHT30;59975;47.646;18.318;2023-01-06T04:46:36;7.83;82.95
72106;SHT30;59975;47.646;18.318;2023-01-06T04:49:02;7.78;83.08
72106;SHT30;59975;47.646;18.318;2023-01-06T04:51:27;7.81;83.07
72106;SHT30;59975;47.646;18.318;2023-01-06T04:53:53;7.79;82.95
72106;SHT30;59975;47.646;18.318;2023-01-06T04:56:18;7.83;83.13
72106;SHT30;59975;47.646;18.318;2023-01-06T04:58:44;7.75;83.62
72106;SHT30;59975;47.646;18.318;2023-01-06T05:01:11;7.66;83.97
72106;SHT30;59975;47.646;18.318;2023-01-06T05:03:38;7.68;83.76
72106;SHT30;59975;47.646;18.318;2023-01-06T05:06:06;7.71;83.71
72106;SHT30;59975;47.646;18.318;2023-01-06T05:08:35;7.75;83.61
72106;SHT30;59975;47.646;18.318;2023-01-06T05:11:07;7.79;83.47
72106;SHT30;59975;47.646;18.318;2023-01-06T05:13:33;7.82;83.35
72106;SHT30;59975;47.646;18.318;2023-01-06T05:15:59;7.78;83.34
72106;SHT30;59975;47.646;18.318;2023-01-06T05:18:24;7.79;83.79
72106;SHT30;59975;47.646;18.318;2023-01-06T05:20:50;7.72;84.07
72106;SHT30;59975;47.646;18.318;2023-01-06T05:23:16;7.61;84.46
72106;SHT30;59975;47.646;18.318;2023-01-06T05:25:42;7.66;84.09
72106;SHT30;59975;47.646;18.318;2023-01-06T05:28:07;7.68;84.19
72106;SHT30;59975;47.646;18.318;2023-01-06T05:30:32;7.71;84.68
72106;SHT30;59975;47.646;18.318;2023-01-06T05:32:58;7.69;84.62
72106;SHT30;59975;47.646;18.318;2023-01-06T05:35:24;7.73;84.55
72106;SHT30;59975;47.646;18.318;2023-01-06T05:37:49;7.69;84.79
72106;SHT30;59975;47.646;18.318;2023-01-06T05:40:14;7.62;84.84
72106;SHT30;59975;47.646;18.318;2023-01-06T05:42:40;7.62;85.09
72106;SHT30;59975;47.646;18.318;2023-01-06T05:45:06;7.55;85.44
72106;SHT30;59975;47.646;18.318;2023-01-06T05:47:31;7.45;85.68
72106;SHT30;59975;47.646;18.318;2023-01-06T05:49:57;7.45;85.42
72106;SHT30;59975;47.646;18.318;2023-01-06T05:52:22;7.48;85.47
72106;SHT30;59975;47.646;18.318;2023-01-06T05:54:48;7.45;85.26
72106;SHT30;59975;47.646;18.318;2023-01-06T05:57:13;7.40;85.41
72106;SHT30;59975;47.646;18.318;2023-01-06T05:59:39;7.36;85.50
72106;SHT30;59975;47.646;18.318;2023-01-06T06:02:04;7.32;85.78
72106;SHT30;59975;47.646;18.318;2023-01-06T06:04:30;7.24;86.18
72106;SHT30;59975;47.646;18.318;2023-01-06T06:06:55;7.25;86.09
72106;SHT30;59975;47.646;18.318;2023-01-06T06:09:20;7.24;86.13
72106;SHT30;59975;47.646;18.318;2023-01-06T06:11:46;7.17;86.41
72106;SHT30;59975;47.646;18.318;2023-01-06T06:14:15;7.22;86.31
72106;SHT30;59975;47.646;18.318;2023-01-06T06:16:41;7.25;86.38
72106;SHT30;59975;47.646;18.318;2023-01-06T06:19:06;7.17;86.47
72106;SHT30;59975;47.646;18.318;2023-01-06T06:21:32;7.04;86.76
72106;SHT30;59975;47.646;18.318;2023-01-06T06:23:58;7.00;87.21
72106;SHT30;59975;47.646;18.318;2023-01-06T06:26:24;6.88;87.51
72106;SHT30;59975;47.646;18.318;2023-01-06T06:28:50;6.91;87.54
72106;SHT30;59975;47.646;18.318;2023-01-06T06:31:20;6.91;87.66
72106;SHT30;59975;47.646;18.318;2023-01-06T06:33:52;6.87;87.96
72106;SHT30;59975;47.646;18.318;2023-01-06T06:36:18;6.91;88.02
72106;SHT30;59975;47.646;18.318;2023-01-06T06:38:45;6.98;87.78
72106;SHT30;59975;47.646;18.318;2023-01-06T06:41:11;6.97;87.81
72106;SHT30;59975;47.646;18.318;2023-01-06T06:43:36;7.01;87.86
72106;SHT30;59975;47.646;18.318;2023-01-06T06:46:02;7.11;87.30
72106;SHT30;59975;47.646;18.318;2023-01-06T06:48:28;7.11;87.32
72106;SHT30;59975;47.646;18.318;2023-01-06T06:51:05;7.15;87.33
72106;SHT30;59975;47.646;18.318;2023-01-06T06:53:31;7.17;87.36
72106;SHT30;59975;47.646;18.318;2023-01-06T06:55:57;7.21;87.40
72106;SHT30;59975;47.646;18.318;2023-01-06T06:58:22;7.17;87.43
72106;SHT30;59975;47.646;18.318;2023-01-06T07:00:48;7.21;87.32
72106;SHT30;59975;47.646;18.318;2023-01-06T07:03:14;7.24;86.95
72106;SHT30;59975;47.646;18.318;2023-01-06T07:05:41;7.25;87.01
72106;SHT30;59975;47.646;18.318;2023-01-06T07:08:07;7.34;86.62
72106;SHT30;59975;47.646;18.318;2023-01-06T07:10:33;7.28;86.74
72106;SHT30;59975;47.646;18.318;2023-01-06T07:12:58;7.35;86.52
72106;SHT30;59975;47.646;18.318;2023-01-06T07:15:24;7.34;86.51
72106;SHT30;59975;47.646;18.318;2023-01-06T07:17:49;7.42;86.54
72106;SHT30;59975;47.646;18.318;2023-01-06T07:20:15;7.52;86.14
72106;SHT30;59975;47.646;18.318;2023-01-06T07:22:40;7.62;85.72
72106;SHT30;59975;47.646;18.318;2023-01-06T07:25:07;7.59;85.51
72106;SHT30;59975;47.646;18.318;2023-01-06T07:27:34;7.56;85.86
72106;SHT30;59975;47.646;18.318;2023-01-06T07:30:00;7.71;85.22
72106;SHT30;59975;47.646;18.318;2023-01-06T07:32:28;7.68;85.19
72106;SHT30;59975;47.646;18.318;2023-01-06T07:34:54;7.79;84.27
72106;SHT30;59975;47.646;18.318;2023-01-06T07:37:19;7.86;83.96
72106;SHT30;59975;47.646;18.318;2023-01-06T07:39:45;7.86;84.17
72106;SHT30;59975;47.646;18.318;2023-01-06T07:42:11;7.78;84.57
72106;SHT30;59975;47.646;18.318;2023-01-06T07:44:37;7.75;84.92
72106;SHT30;59975;47.646;18.318;2023-01-06T07:47:02;7.65;85.26
72106;SHT30;59975;47.646;18.318;2023-01-06T07:49:28;7.35;85.90
72106;SHT30;59975;47.646;18.318;2023-01-06T07:51:53;7.40;86.13
72106;SHT30;59975;47.646;18.318;2023-01-06T07:54:19;7.42;86.08
72106;SHT30;59975;47.646;18.318;2023-01-06T07:56:44;7.42;85.83
72106;SHT30;59975;47.646;18.318;2023-01-06T07:59:10;7.31;86.29
72106;SHT30;59975;47.646;18.318;2023-01-06T08:01:36;7.30;86.37
72106;SHT30;59975;47.646;18.318;2023-01-06T08:04:01;7.41;86.36
72106;SHT30;59975;47.646;18.318;2023-01-06T08:06:27;7.44;86.09
72106;SHT30;59975;47.646;18.318;2023-01-06T08:08:52;7.42;86.27
72106;SHT30;59975;47.646;18.318;2023-01-06T08:11:18;7.40;86.30
72106;SHT30;59975;47.646;18.318;2023-01-06T08:13:44;7.48;86.13
72106;SHT30;59975;47.646;18.318;2023-01-06T08:16:10;7.41;86.25
72106;SHT30;59975;47.646;18.318;2023-01-06T08:18:36;7.51;85.97
72106;SHT30;59975;47.646;18.318;2023-01-06T08:21:04;7.55;85.73
72106;SHT30;59975;47.646;18.318;2023-01-06T08:23:32;7.65;85.30
72106;SHT30;59975;47.646;18.318;2023-01-06T08:26:05;7.69;85.14
72106;SHT30;59975;47.646;18.318;2023-01-06T08:28:31;7.72;85.41
72106;SHT30;59975;47.646;18.318;2023-01-06T08:30:57;7.76;85.09
72106;SHT30;59975;47.646;18.318;2023-01-06T08:33:23;7.82;84.79
72106;SHT30;59975;47.646;18.318;2023-01-06T08:35:59;7.92;84.24
72106;SHT30;59975;47.646;18.318;2023-01-06T08:38:25;7.89;84.39
72106;SHT30;59975;47.646;18.318;2023-01-06T08:40:52;7.89;84.55
72106;SHT30;59975;47.646;18.318;2023-01-06T08:43:17;7.90;84.53
72106;SHT30;59975;47.646;18.318;2023-01-06T08:45:43;7.95;84.48
72106;SHT30;59975;47.646;18.318;2023-01-06T08:48:09;8.03;84.10
72106;SHT30;59975;47.646;18.318;2023-01-06T08:50:37;8.14;83.27
72106;SHT30;59975;47.646;18.318;2023-01-06T08:53:03;8.24;83.00
72106;SHT30;59975;47.646;18.318;2023-01-06T08:55:28;8.29;83.05
72106;SHT30;59975;47.646;18.318;2023-01-06T08:57:54;8.40;82.71
72106;SHT30;59975;47.646;18.318;2023-01-06T09:00:19;8.40;82.93
72106;SHT30;59975;47.646;18.318;2023-01-06T09:02:45;8.40;82.87
72106;SHT30;59975;47.646;18.318;2023-01-06T09:05:10;8.51;82.34
72106;SHT30;59975;47.646;18.318;2023-01-06T09:07:36;8.47;82.76
72106;SHT30;59975;47.646;18.318;2023-01-06T09:10:02;8.47;82.79
72106;SHT30;59975;47.646;18.318;2023-01-06T09:12:27;8.60;82.16
72106;SHT30;59975;47.646;18.318;2023-01-06T09:14:53;8.60;82.18
72106;SHT30;59975;47.646;18.318;2023-01-06T09:17:18;8.60;82.37
72106;SHT30;59975;47.646;18.318;2023-01-06T09:19:44;8.69;82.24
72106;SHT30;59975;47.646;18.318;2023-01-06T09:22:09;8.63;82.28
72106;SHT30;59975;47.646;18.318;2023-01-06T09:24:34;8.51;82.77
72106;SHT30;59975;47.646;18.318;2023-01-06T09:27:00;8.47;82.36
72106;SHT30;59975;47.646;18.318;2023-01-06T09:29:25;8.37;82.63
72106;SHT30;59975;47.646;18.318;2023-01-06T09:31:51;8.37;83.13
72106;SHT30;59975;47.646;18.318;2023-01-06T09:34:16;8.43;82.56
72106;SHT30;59975;47.646;18.318;2023-01-06T09:36:42;8.54;82.22
72106;SHT30;59975;47.646;18.318;2023-01-06T09:39:07;8.56;82.22
72106;SHT30;59975;47.646;18.318;2023-01-06T09:44:20;8.68;81.45
72106;SHT30;59975;47.646;18.318;2023-01-06T09:46:49;8.79;80.66
72106;SHT30;59975;47.646;18.318;2023-01-06T09:50:02;8.79;81.48
72106;SHT30;59975;47.646;18.318;2023-01-06T09:52:24;8.78;81.48
72106;SHT30;59975;47.646;18.318;2023-01-06T09:54:55;8.88;80.38
72106;SHT30;59975;47.646;18.318;2023-01-06T09:57:38;8.91;80.53
72106;SHT30;59975;47.646;18.318;2023-01-06T10:02:45;9.05;78.84
72106;SHT30;59975;47.646;18.318;2023-01-06T10:17:10;9.35;76.39
72106;SHT30;59975;47.646;18.318;2023-01-06T10:22:30;9.25;77.51
72106;SHT30;59975;47.646;18.318;2023-01-06T10:27:41;9.43;76.89
72106;SHT30;59975;47.646;18.318;2023-01-06T10:30:25;9.42;77.19
72106;SHT30;59975;47.646;18.318;2023-01-06T10:32:51;9.42;77.41
72106;SHT30;59975;47.646;18.318;2023-01-06T10:35:20;9.44;77.24
72106;SHT30;59975;47.646;18.318;2023-01-06T10:37:48;9.46;76.60
72106;SHT30;59975;47.646;18.318;2023-01-06T10:40:25;9.43;77.20
72106;SHT30;59975;47.646;18.318;2023-01-06T10:43:02;9.35;77.27
72106;SHT30;59975;47.646;18.318;2023-01-06T10:48:00;9.46;76.78
72106;SHT30;59975;47.646;18.318;2023-01-06T10:50:27;9.42;77.57
72106;SHT30;59975;47.646;18.318;2023-01-06T10:52:53;9.46;76.52
72106;SHT30;59975;47.646;18.318;2023-01-06T10:55:38;9.53;75.78
72106;SHT30;59975;47.646;18.318;2023-01-06T10:58:12;9.77;75.22
72106;SHT30;59975;47.646;18.318;2023-01-06T11:00:54;9.98;74.46
72106;SHT30;59975;47.646;18.318;2023-01-06T11:03:20;9.94;75.31
72106;SHT30;59975;47.646;18.318;2023-01-06T11:05:45;9.95;75.32
72106;SHT30;59975;47.646;18.318;2023-01-06T11:08:14;10.11;74.89
72106;SHT30;59975;47.646;18.318;2023-01-06T11:10:50;10.40;73.37
72106;SHT30;59975;47.646;18.318;2023-01-06T11:15:47;10.51;73.82
72106;SHT30;59975;47.646;18.318;2023-01-06T11:18:29;10.55;73.77
72106;SHT30;59975;47.646;18.318;2023-01-06T11:21:15;10.68;73.20
72106;SHT30;59975;47.646;18.318;2023-01-06T11:23:43;10.88;73.19
72106;SHT30;59975;47.646;18.318;2023-01-06T11:26:18;11.02;72.75
72106;SHT30;59975;47.646;18.318;2023-01-06T11:28:46;10.93;73.12
72106;SHT30;59975;47.646;18.318;2023-01-06T11:36:16;11.43;72.55
72106;SHT30;59975;47.646;18.318;2023-01-06T11:38:45;11.46;70.70
72106;SHT30;59975;47.646;18.318;2023-01-06T11:41:12;11.57;70.91
72106;SHT30;59975;47.646;18.318;2023-01-06T11:43:44;11.69;70.21
72106;SHT30;59975;47.646;18.318;2023-01-06T11:46:12;11.70;70.75
72106;SHT30;59975;47.646;18.318;2023-01-06T11:48:46;11.71;70.66
72106;SHT30;59975;47.646;18.318;2023-01-06T11:51:12;11.71;69.64
72106;SHT30;59975;47.646;18.318;2023-01-06T11:53:39;11.39;71.22
72106;SHT30;59975;47.646;18.318;2023-01-06T11:56:18;11.40;71.72
72106;SHT30;59975;47.646;18.318;2023-01-06T11:59:01;11.34;71.44
72106;SHT30;59975;47.646;18.318;2023-01-06T12:04:07;11.09;71.76
72106;SHT30;59975;47.646;18.318;2023-01-06T12:06:40;11.16;72.37
72106;SHT30;59975;47.646;18.318;2023-01-06T12:09:11;11.10;72.67
72106;SHT30;59975;47.646;18.318;2023-01-06T12:11:52;11.15;72.04
72106;SHT30;59975;47.646;18.318;2023-01-06T12:14:22;11.18;71.97
72106;SHT30;59975;47.646;18.318;2023-01-06T12:22:36;11.18;71.23
72106;SHT30;59975;47.646;18.318;2023-01-06T12:25:04;11.09;72.28
72106;SHT30;59975;47.646;18.318;2023-01-06T12:27:36;11.12;71.75
72106;SHT30;59975;47.646;18.318;2023-01-06T12:30:09;11.08;72.49
72106;SHT30;59975;47.646;18.318;2023-01-06T12:32:40;11.16;73.29
72106;SHT30;59975;47.646;18.318;2023-01-06T12:35:11;11.15;72.05
72106;SHT30;59975;47.646;18.318;2023-01-06T12:37:41;11.02;72.80
72106;SHT30;59975;47.646;18.318;2023-01-06T12:40:29;11.09;72.78
72106;SHT30;59975;47.646;18.318;2023-01-06T12:45:37;11.24;71.11
72106;SHT30;59975;47.646;18.318;2023-01-06T12:48:14;11.44;70.96
72106;SHT30;59975;47.646;18.318;2023-01-06T12:50:50;11.51;70.28
72106;SHT30;59975;47.646;18.318;2023-01-06T12:53:42;11.37;70.73
72106;SHT30;59975;47.646;18.318;2023-01-06T13:10:02;10.82;72.28
72106;SHT30;59975;47.646;18.318;2023-01-06T13:15:21;10.69;72.71
72106;SHT30;59975;47.646;18.318;2023-01-06T13:31:54;10.25;74.46
72106;SHT30;59975;47.646;18.318;2023-01-06T13:39:57;10.21;73.87
72106;SHT30;59975;47.646;18.318;2023-01-06T13:45:18;10.04;74.56
72106;SHT30;59975;47.646;18.318;2023-01-06T13:47:46;9.93;75.43
72106;SHT30;59975;47.646;18.318;2023-01-06T13:50:14;9.82;76.08
72106;SHT30;59975;47.646;18.318;2023-01-06T13:52:41;9.83;75.91
72106;SHT30;59975;47.646;18.318;2023-01-06T13:55:45;9.67;76.02
72106;SHT30;59975;47.646;18.318;2023-01-06T14:01:11;9.40;77.85
72106;SHT30;59975;47.646;18.318;2023-01-06T14:03:41;9.38;78.40
72106;SHT30;59975;47.646;18.318;2023-01-06T14:08:50;9.18;79.14
72106;SHT30;59975;47.646;18.318;2023-01-06T14:13:57;9.02;79.90
72106;SHT30;59975;47.646;18.318;2023-01-06T14:16:47;8.95;80.01
72106;SHT30;59975;47.646;18.318;2023-01-06T14:19:18;9.01;80.11
72106;SHT30;59975;47.646;18.318;2023-01-06T14:21:46;8.93;80.15
72106;SHT30;59975;47.646;18.318;2023-01-06T14:26:55;8.75;81.09
72106;SHT30;59975;47.646;18.318;2023-01-06T14:34:55;8.71;80.95
72106;SHT30;59975;47.646;18.318;2023-01-06T14:37:47;8.67;81.10
72106;SHT30;59975;47.646;18.318;2023-01-06T14:40:24;8.60;81.22
72106;SHT30;59975;47.646;18.318;2023-01-06T14:42:51;8.57;81.14
72106;SHT30;59975;47.646;18.318;2023-01-06T14:45:22;8.47;81.42
72106;SHT30;59975;47.646;18.318;2023-01-06T14:47:50;8.43;81.68
72106;SHT30;59975;47.646;18.318;2023-01-06T14:50:26;8.38;81.70
72106;SHT30;59975;47.646;18.318;2023-01-06T14:52:56;8.29;81.96
72106;SHT30;59975;47.646;18.318;2023-01-06T14:55:24;8.19;82.28
72106;SHT30;59975;47.646;18.318;2023-01-06T14:57:50;8.12;82.48
72106;SHT30;59975;47.646;18.318;2023-01-06T15:00:24;8.03;83.05
72106;SHT30;59975;47.646;18.318;2023-01-06T15:03:01;7.95;83.18
72106;SHT30;59975;47.646;18.318;2023-01-06T15:05:30;7.90;83.45
72106;SHT30;59975;47.646;18.318;2023-01-06T15:08:03;7.83;83.54
72106;SHT30;59975;47.646;18.318;2023-01-06T15:10:32;7.81;83.68
72106;SHT30;59975;47.646;18.318;2023-01-06T15:13:00;7.82;83.68
72106;SHT30;59975;47.646;18.318;2023-01-06T15:15:29;7.76;83.68
72106;SHT30;59975;47.646;18.318;2023-01-06T15:17:56;7.72;83.89
72106;SHT30;59975;47.646;18.318;2023-01-06T15:20:32;7.61;84.10
72106;SHT30;59975;47.646;18.318;2023-01-06T15:22:58;7.69;83.91
72106;SHT30;59975;47.646;18.318;2023-01-06T15:25:26;7.79;83.57
72106;SHT30;59975;47.646;18.318;2023-01-06T15:27:52;7.71;83.63
72106;SHT30;59975;47.646;18.318;2023-01-06T15:30:22;7.69;83.67
72106;SHT30;59975;47.646;18.318;2023-01-06T15:32:49;7.65;83.79
72106;SHT30;59975;47.646;18.318;2023-01-06T15:35:34;7.52;84.14
72106;SHT30;59975;47.646;18.318;2023-01-06T15:38:34;7.52;84.19
72106;SHT30;59975;47.646;18.318;2023-01-06T15:40:59;7.50;84.37
72106;SHT30;59975;47.646;18.318;2023-01-06T15:43:26;7.42;84.48
72106;SHT30;59975;47.646;18.318;2023-01-06T15:46:05;7.45;84.56
72106;SHT30;59975;47.646;18.318;2023-01-06T15:48:33;7.34;84.75
72106;SHT30;59975;47.646;18.318;2023-01-06T15:50:59;7.40;84.94
72106;SHT30;59975;47.646;18.318;2023-01-06T15:53:28;7.42;84.93
72106;SHT30;59975;47.646;18.318;2023-01-06T15:55:58;7.55;84.71
72106;SHT30;59975;47.646;18.318;2023-01-06T15:58:31;7.72;84.08
72106;SHT30;59975;47.646;18.318;2023-01-06T16:03:32;8.05;82.99
72106;SHT30;59975;47.646;18.318;2023-01-06T16:06:05;8.07;82.88
72106;SHT30;59975;47.646;18.318;2023-01-06T16:08:31;8.09;82.77
72106;SHT30;59975;47.646;18.318;2023-01-06T16:13:51;8.32;81.93
72106;SHT30;59975;47.646;18.318;2023-01-06T16:18:48;8.44;81.52
72106;SHT30;59975;47.646;18.318;2023-01-06T16:21:28;8.40;81.70
72106;SHT30;59975;47.646;18.318;2023-01-06T16:23:59;8.41;81.69
72106;SHT30;59975;47.646;18.318;2023-01-06T16:26:28;8.36;81.80
72106;SHT30;59975;47.646;18.318;2023-01-06T16:28:57;8.30;81.92
72106;SHT30;59975;47.646;18.318;2023-01-06T16:31:36;8.33;81.76
72106;SHT30;59975;47.646;18.318;2023-01-06T16:36:46;8.32;81.58
72106;SHT30;59975;47.646;18.318;2023-01-06T16:39:12;8.22;81.90
72106;SHT30;59975;47.646;18.318;2023-01-06T16:41:40;8.06;82.16
72106;SHT30;59975;47.646;18.318;2023-01-06T16:44:31;8.02;82.18
72106;SHT30;59975;47.646;18.318;2023-01-06T16:46:57;7.96;82.37
72106;SHT30;59975;47.646;18.318;2023-01-06T16:49:23;7.83;82.86
72106;SHT30;59975;47.646;18.318;2023-01-06T16:51:49;7.78;82.95
72106;SHT30;59975;47.646;18.318;2023-01-06T16:54:16;7.85;82.84
72106;SHT30;59975;47.646;18.318;2023-01-06T16:56:43;7.83;82.79
72106;SHT30;59975;47.646;18.318;2023-01-06T16:59:11;7.90;82.66
72106;SHT30;59975;47.646;18.318;2023-01-06T17:01:37;7.92;82.50
72106;SHT30;59975;47.646;18.318;2023-01-06T17:04:03;7.95;82.16
72106;SHT30;59975;47.646;18.318;2023-01-06T17:06:30;7.87;82.33
72106;SHT30;59975;47.646;18.318;2023-01-06T17:08:59;7.85;82.35
72106;SHT30;59975;47.646;18.318;2023-01-06T17:11:27;7.97;81.65
72106;SHT30;59975;47.646;18.318;2023-01-06T17:14:01;7.95;81.45
72106;SHT30;59975;47.646;18.318;2023-01-06T17:16:34;7.95;81.57
72106;SHT30;59975;47.646;18.318;2023-01-06T17:19:26;7.97;81.35
72106;SHT30;59975;47.646;18.318;2023-01-06T17:22:13;8.00;81.16
72106;SHT30;59975;47.646;18.318;2023-01-06T17:24:44;8.06;80.97
72106;SHT30;59975;47.646;18.318;2023-01-06T17:27:20;7.97;81.19
72106;SHT30;59975;47.646;18.318;2023-01-06T17:29:46;7.92;81.41
72106;SHT30;59975;47.646;18.318;2023-01-06T17:32:35;7.97;81.41
72106;SHT30;59975;47.646;18.318;2023-01-06T17:35:25;7.82;81.66
72106;SHT30;59975;47.646;18.318;2023-01-06T17:37:52;7.75;82.04
72106;SHT30;59975;47.646;18.318;2023-01-06T17:40:18;7.73;82.14
72106;SHT30;59975;47.646;18.318;2023-01-06T17:43:04;7.69;82.34
72106;SHT30;59975;47.646;18.318;2023-01-06T17:45:32;7.63;82.65
72106;SHT30;59975;47.646;18.318;2023-01-06T17:47:58;7.58;82.73
72106;SHT30;59975;47.646;18.318;2023-01-06T17:50:33;7.56;82.88
72106;SHT30;59975;47.646;18.318;2023-01-06T17:53:29;7.54;82.97
72106;SHT30;59975;47.646;18.318;2023-01-06T17:56:14;7.51;83.17
72106;SHT30;59975;47.646;18.318;2023-01-06T17:58:42;7.50;83.22
72106;SHT30;59975;47.646;18.318;2023-01-06T18:01:18;7.44;83.33
72106;SHT30;59975;47.646;18.318;2023-01-06T18:03:44;7.45;83.40
72106;SHT30;59975;47.646;18.318;2023-01-06T18:06:20;7.40;83.49
72106;SHT30;59975;47.646;18.318;2023-01-06T18:08:49;7.40;83.62
72106;SHT30;59975;47.646;18.318;2023-01-06T18:11:22;7.48;83.37
72106;SHT30;59975;47.646;18.318;2023-01-06T18:13:47;7.47;83.35
72106;SHT30;59975;47.646;18.318;2023-01-06T18:16:33;7.40;83.71